KSGF/SGF METAR and TAF weather

Enter ICAO airport designator
Station Type Date Time Source
KSGF METAR 2019/06/26 20:25 UTC NOAA

KSGF 262025Z 20007KT 10SM FEW050 FEW070 25/20 A3011 RMK AO2 LTG DSNT SE T02500200


Station Type Date Time Source
KSGF Decoded METAR 2019/06/26 20:25 UTC NOAA

SPRINGFIELD-BRANSON NATIONAL, MO, United States (KSGF) 37-14N 93-23W 389M
Jun 26, 2019 - 04:25 PM EDT / 2019.06.26 2025 UTC
Wind: from the SSW (200 degrees) at 8 MPH (7 KT):0
Visibility: 10 mile(s):0
Sky conditions: mostly clear
Weather: Lightning observed
Temperature: 77.0 F (25.0 C)
Dew Point: 68.0 F (20.0 C)
Relative Humidity: 73%
Pressure (altimeter): 30.11 in. Hg (1019 hPa)
ob: KSGF 262025Z 20007KT 10SM FEW050 FEW070 25/20 A3011 RMK AO2 LTG DSNT SE T02500200
cycle: 20

Station Type Date Time Source
KSGF TAF 2019/06/26 18:39 UTC NOAA

TAF KSGF 261736Z 2618/2718 VRB05KT P6SM VCSH FEW029 SCT180
TEMPO 2620/2623 4SM TSRA BKN040CB
FM262300 28005KT P6SM FEW040 SCT200
FM270200 VRB04KT P6SM SCT250

Example: see airport list